Anselmo, Nebraska
Current Conditions -  °F | °C
As of 10:33 AM on Thursday 18 Dec 2014 (Local Time) from KBBW Reporting Station
Overcast Overcast  
Wind Chill: -8°   Ceiling: 700
Heat Index: -3°   Visibility: 8mi
Dew Point: -4°   Wind: 8mph
Humidity: 92%   Direction: 190°S
Pressure: 30.14"   Gusts: NA
Location:  41.62°N, 99.87°W
Report Text: KBBW 181633Z AUTO 19007KT 8SM OVC007 M03/M04 A3014 RMK AO2 T10331044
Loading
Personal Weather Stations






























Interactive Weather Map New forecast layout! Learn more

10-Day Weather Forecast

Advertisements
Track Severe Weather on mobile